sensor_id;sensor_type;location;lat;lon;timestamp;temperature;humidity
67942;SHT31;54731;42.600;23.476;2023-08-20T00:02:09;21.55;57.31
67942;SHT31;54731;42.600;23.476;2023-08-20T00:04:36;21.54;57.18
67942;SHT31;54731;42.600;23.476;2023-08-20T00:07:01;21.48;57.41
67942;SHT31;54731;42.600;23.476;2023-08-20T00:09:27;21.54;57.34
67942;SHT31;54731;42.600;23.476;2023-08-20T00:11:52;21.62;57.07
67942;SHT31;54731;42.600;23.476;2023-08-20T00:14:17;21.55;57.19
67942;SHT31;54731;42.600;23.476;2023-08-20T00:16:43;21.49;57.31
67942;SHT31;54731;42.600;23.476;2023-08-20T00:19:10;21.48;57.33
67942;SHT31;54731;42.600;23.476;2023-08-20T00:21:38;21.52;57.37
67942;SHT31;54731;42.600;23.476;2023-08-20T00:24:04;21.49;57.50
67942;SHT31;54731;42.600;23.476;2023-08-20T00:26:30;21.49;57.40
67942;SHT31;54731;42.600;23.476;2023-08-20T00:28:55;21.48;57.53
67942;SHT31;54731;42.600;23.476;2023-08-20T00:31:21;21.45;57.51
67942;SHT31;54731;42.600;23.476;2023-08-20T00:33:46;21.42;57.52
67942;SHT31;54731;42.600;23.476;2023-08-20T00:36:11;21.48;57.42
67942;SHT31;54731;42.600;23.476;2023-08-20T00:38:37;21.44;57.94
67942;SHT31;54731;42.600;23.476;2023-08-20T00:41:02;21.37;57.80
67942;SHT31;54731;42.600;23.476;2023-08-20T00:43:27;21.39;57.95
67942;SHT31;54731;42.600;23.476;2023-08-20T00:45:52;21.37;58.07
67942;SHT31;54731;42.600;23.476;2023-08-20T00:48:18;21.37;58.14
67942;SHT31;54731;42.600;23.476;2023-08-20T00:50:44;21.10;58.90
67942;SHT31;54731;42.600;23.476;2023-08-20T00:53:10;21.08;58.83
67942;SHT31;54731;42.600;23.476;2023-08-20T00:55:37;21.10;59.09
67942;SHT31;54731;42.600;23.476;2023-08-20T00:58:02;21.00;59.72
67942;SHT31;54731;42.600;23.476;2023-08-20T01:00:28;20.95;60.05
67942;SHT31;54731;42.600;23.476;2023-08-20T01:02:53;20.93;60.18
67942;SHT31;54731;42.600;23.476;2023-08-20T01:05:19;20.85;60.03
67942;SHT31;54731;42.600;23.476;2023-08-20T01:08:28;20.80;59.98
67942;SHT31;54731;42.600;23.476;2023-08-20T01:13:28;20.74;60.95
67942;SHT31;54731;42.600;23.476;2023-08-20T01:15:53;20.72;61.28
67942;SHT31;54731;42.600;23.476;2023-08-20T01:18:18;20.72;61.34
67942;SHT31;54731;42.600;23.476;2023-08-20T01:20:58;20.70;60.94
67942;SHT31;54731;42.600;23.476;2023-08-20T01:23:38;20.66;61.35
67942;SHT31;54731;42.600;23.476;2023-08-20T01:28:52;20.59;61.50
67942;SHT31;54731;42.600;23.476;2023-08-20T01:31:18;20.57;61.44
67942;SHT31;54731;42.600;23.476;2023-08-20T01:33:43;20.50;62.35
67942;SHT31;54731;42.600;23.476;2023-08-20T01:36:09;20.49;61.77
67942;SHT31;54731;42.600;23.476;2023-08-20T01:38:34;20.42;61.84
67942;SHT31;54731;42.600;23.476;2023-08-20T01:40:59;20.37;61.70
67942;SHT31;54731;42.600;23.476;2023-08-20T01:43:25;20.33;61.60
67942;SHT31;54731;42.600;23.476;2023-08-20T01:45:50;20.32;61.75
67942;SHT31;54731;42.600;23.476;2023-08-20T01:48:15;20.30;62.50
67942;SHT31;54731;42.600;23.476;2023-08-20T01:50:41;20.28;62.67
67942;SHT31;54731;42.600;23.476;2023-08-20T01:53:06;20.23;62.74
67942;SHT31;54731;42.600;23.476;2023-08-20T01:55:31;20.18;63.13
67942;SHT31;54731;42.600;23.476;2023-08-20T01:57:56;20.16;63.24
67942;SHT31;54731;42.600;23.476;2023-08-20T02:00:22;20.12;63.21
67942;SHT31;54731;42.600;23.476;2023-08-20T02:02:47;20.13;63.04
67942;SHT31;54731;42.600;23.476;2023-08-20T02:05:12;20.10;63.05
67942;SHT31;54731;42.600;23.476;2023-08-20T02:07:38;20.10;63.04
67942;SHT31;54731;42.600;23.476;2023-08-20T02:10:03;20.09;63.19
67942;SHT31;54731;42.600;23.476;2023-08-20T02:12:29;20.01;63.39
67942;SHT31;54731;42.600;23.476;2023-08-20T02:14:54;20.01;63.41
67942;SHT31;54731;42.600;23.476;2023-08-20T02:17:19;19.96;63.36
67942;SHT31;54731;42.600;23.476;2023-08-20T02:19:45;19.95;63.36
67942;SHT31;54731;42.600;23.476;2023-08-20T02:22:10;19.86;63.48
67942;SHT31;54731;42.600;23.476;2023-08-20T02:24:35;19.85;63.54
67942;SHT31;54731;42.600;23.476;2023-08-20T02:27:01;19.79;63.66
67942;SHT31;54731;42.600;23.476;2023-08-20T02:29:26;19.78;63.69
67942;SHT31;54731;42.600;23.476;2023-08-20T02:31:51;19.74;63.71
67942;SHT31;54731;42.600;23.476;2023-08-20T02:34:16;19.74;63.48
67942;SHT31;54731;42.600;23.476;2023-08-20T02:36:42;19.74;63.63
67942;SHT31;54731;42.600;23.476;2023-08-20T02:39:07;19.74;64.01
67942;SHT31;54731;42.600;23.476;2023-08-20T02:41:35;19.74;63.43
67942;SHT31;54731;42.600;23.476;2023-08-20T02:44:00;19.71;63.24
67942;SHT31;54731;42.600;23.476;2023-08-20T02:46:25;19.71;62.96
67942;SHT31;54731;42.600;23.476;2023-08-20T02:48:51;19.67;63.01
67942;SHT31;54731;42.600;23.476;2023-08-20T02:51:16;19.62;62.99
67942;SHT31;54731;42.600;23.476;2023-08-20T02:53:41;19.59;62.95
67942;SHT31;54731;42.600;23.476;2023-08-20T02:56:07;19.58;63.23
67942;SHT31;54731;42.600;23.476;2023-08-20T02:58:32;19.57;63.29
67942;SHT31;54731;42.600;23.476;2023-08-20T03:00:57;19.59;63.37
67942;SHT31;54731;42.600;23.476;2023-08-20T03:03:22;19.57;63.51
67942;SHT31;54731;42.600;23.476;2023-08-20T03:05:48;19.54;63.93
67942;SHT31;54731;42.600;23.476;2023-08-20T03:08:13;19.53;64.06
67942;SHT31;54731;42.600;23.476;2023-08-20T03:10:38;19.47;64.57
67942;SHT31;54731;42.600;23.476;2023-08-20T03:13:04;19.47;64.77
67942;SHT31;54731;42.600;23.476;2023-08-20T03:15:29;19.46;64.86
67942;SHT31;54731;42.600;23.476;2023-08-20T03:17:55;19.41;65.12
67942;SHT31;54731;42.600;23.476;2023-08-20T03:20:20;19.37;65.30
67942;SHT31;54731;42.600;23.476;2023-08-20T03:22:46;19.34;65.43
67942;SHT31;54731;42.600;23.476;2023-08-20T03:25:11;19.30;65.43
67942;SHT31;54731;42.600;23.476;2023-08-20T03:27:36;19.32;65.45
67942;SHT31;54731;42.600;23.476;2023-08-20T03:30:03;19.31;65.53
67942;SHT31;54731;42.600;23.476;2023-08-20T03:32:28;19.32;65.40
67942;SHT31;54731;42.600;23.476;2023-08-20T03:34:54;19.31;65.59
67942;SHT31;54731;42.600;23.476;2023-08-20T03:37:19;19.28;65.57
67942;SHT31;54731;42.600;23.476;2023-08-20T03:39:44;19.27;65.59
67942;SHT31;54731;42.600;23.476;2023-08-20T03:42:10;19.20;65.61
67942;SHT31;54731;42.600;23.476;2023-08-20T03:44:35;19.20;65.65
67942;SHT31;54731;42.600;23.476;2023-08-20T03:47:01;19.24;65.56
67942;SHT31;54731;42.600;23.476;2023-08-20T03:49:26;19.26;65.57
67942;SHT31;54731;42.600;23.476;2023-08-20T03:51:57;19.23;65.51
67942;SHT31;54731;42.600;23.476;2023-08-20T03:54:23;19.18;65.69
67942;SHT31;54731;42.600;23.476;2023-08-20T03:56:48;19.21;65.76
67942;SHT31;54731;42.600;23.476;2023-08-20T03:59:14;19.20;65.72
67942;SHT31;54731;42.600;23.476;2023-08-20T04:01:39;19.21;65.77
67942;SHT31;54731;42.600;23.476;2023-08-20T04:04:04;19.21;65.76
67942;SHT31;54731;42.600;23.476;2023-08-20T04:06:30;19.26;65.82
67942;SHT31;54731;42.600;23.476;2023-08-20T04:08:55;19.30;65.86
67942;SHT31;54731;42.600;23.476;2023-08-20T04:11:21;19.31;65.76
67942;SHT31;54731;42.600;23.476;2023-08-20T04:13:46;19.35;65.79
67942;SHT31;54731;42.600;23.476;2023-08-20T04:16:12;19.34;65.98
67942;SHT31;54731;42.600;23.476;2023-08-20T04:18:37;19.38;66.06
67942;SHT31;54731;42.600;23.476;2023-08-20T04:21:02;19.38;66.19
67942;SHT31;54731;42.600;23.476;2023-08-20T04:23:28;19.46;66.20
67942;SHT31;54731;42.600;23.476;2023-08-20T04:25:53;19.48;66.46
67942;SHT31;54731;42.600;23.476;2023-08-20T04:28:18;19.53;66.22
67942;SHT31;54731;42.600;23.476;2023-08-20T04:30:44;19.54;66.39
67942;SHT31;54731;42.600;23.476;2023-08-20T04:33:09;19.55;66.67
67942;SHT31;54731;42.600;23.476;2023-08-20T04:35:35;19.62;66.60
67942;SHT31;54731;42.600;23.476;2023-08-20T04:38:01;19.65;66.65
67942;SHT31;54731;42.600;23.476;2023-08-20T04:40:26;19.68;66.79
67942;SHT31;54731;42.600;23.476;2023-08-20T04:42:52;19.77;66.23
67942;SHT31;54731;42.600;23.476;2023-08-20T04:45:17;19.85;65.85
67942;SHT31;54731;42.600;23.476;2023-08-20T04:47:42;19.89;65.98
67942;SHT31;54731;42.600;23.476;2023-08-20T04:50:08;19.91;66.77
67942;SHT31;54731;42.600;23.476;2023-08-20T04:52:34;19.91;66.76
67942;SHT31;54731;42.600;23.476;2023-08-20T04:55:02;19.98;66.56
67942;SHT31;54731;42.600;23.476;2023-08-20T04:57:28;20.01;66.84
67942;SHT31;54731;42.600;23.476;2023-08-20T04:59:53;20.08;67.15
67942;SHT31;54731;42.600;23.476;2023-08-20T05:02:18;20.12;66.67
67942;SHT31;54731;42.600;23.476;2023-08-20T05:04:44;20.22;66.72
67942;SHT31;54731;42.600;23.476;2023-08-20T05:07:09;20.33;66.89
67942;SHT31;54731;42.600;23.476;2023-08-20T05:09:34;20.40;67.04
67942;SHT31;54731;42.600;23.476;2023-08-20T05:12:00;20.46;66.90
67942;SHT31;54731;42.600;23.476;2023-08-20T05:14:25;20.54;66.04
67942;SHT31;54731;42.600;23.476;2023-08-20T05:16:50;20.67;66.97
67942;SHT31;54731;42.600;23.476;2023-08-20T05:19:16;20.76;65.36
67942;SHT31;54731;42.600;23.476;2023-08-20T05:21:41;20.81;64.71
67942;SHT31;54731;42.600;23.476;2023-08-20T05:24:06;20.85;64.20
67942;SHT31;54731;42.600;23.476;2023-08-20T05:26:32;20.94;63.39
67942;SHT31;54731;42.600;23.476;2023-08-20T05:28:57;21.03;64.65
67942;SHT31;54731;42.600;23.476;2023-08-20T05:31:23;21.11;64.11
67942;SHT31;54731;42.600;23.476;2023-08-20T05:33:48;21.17;64.68
67942;SHT31;54731;42.600;23.476;2023-08-20T05:36:14;21.25;65.35
67942;SHT31;54731;42.600;23.476;2023-08-20T05:38:40;21.37;65.95
67942;SHT31;54731;42.600;23.476;2023-08-20T05:41:05;21.44;64.94
67942;SHT31;54731;42.600;23.476;2023-08-20T05:43:30;21.44;65.53
67942;SHT31;54731;42.600;23.476;2023-08-20T05:45:55;21.38;65.57
67942;SHT31;54731;42.600;23.476;2023-08-20T05:48:21;21.44;66.90
67942;SHT31;54731;42.600;23.476;2023-08-20T05:50:46;21.49;66.58
67942;SHT31;54731;42.600;23.476;2023-08-20T05:53:11;21.54;66.10
67942;SHT31;54731;42.600;23.476;2023-08-20T05:55:37;21.63;66.01
67942;SHT31;54731;42.600;23.476;2023-08-20T05:58:03;21.69;65.37
67942;SHT31;54731;42.600;23.476;2023-08-20T06:00:28;21.69;65.20
67942;SHT31;54731;42.600;23.476;2023-08-20T06:02:53;21.79;65.40
67942;SHT31;54731;42.600;23.476;2023-08-20T06:05:19;21.83;63.34
67942;SHT31;54731;42.600;23.476;2023-08-20T06:07:44;21.89;63.81
67942;SHT31;54731;42.600;23.476;2023-08-20T06:10:10;22.02;63.51
67942;SHT31;54731;42.600;23.476;2023-08-20T06:12:35;22.08;63.81
67942;SHT31;54731;42.600;23.476;2023-08-20T06:15:00;22.13;64.19
67942;SHT31;54731;42.600;23.476;2023-08-20T06:17:26;22.22;62.38
67942;SHT31;54731;42.600;23.476;2023-08-20T06:19:51;22.24;64.98
67942;SHT31;54731;42.600;23.476;2023-08-20T06:22:16;22.26;63.76
67942;SHT31;54731;42.600;23.476;2023-08-20T06:24:41;22.33;64.57
67942;SHT31;54731;42.600;23.476;2023-08-20T06:27:07;22.39;62.55
67942;SHT31;54731;42.600;23.476;2023-08-20T06:29:32;22.43;62.35
67942;SHT31;54731;42.600;23.476;2023-08-20T06:31:57;22.44;62.04
67942;SHT31;54731;42.600;23.476;2023-08-20T06:34:23;22.49;61.69
67942;SHT31;54731;42.600;23.476;2023-08-20T06:36:49;22.53;62.21
67942;SHT31;54731;42.600;23.476;2023-08-20T06:39:14;22.57;61.58
67942;SHT31;54731;42.600;23.476;2023-08-20T06:41:39;22.59;60.95
67942;SHT31;54731;42.600;23.476;2023-08-20T06:44:05;22.61;58.71
67942;SHT31;54731;42.600;23.476;2023-08-20T06:46:30;22.65;60.04
67942;SHT31;54731;42.600;23.476;2023-08-20T06:48:55;22.64;61.89
67942;SHT31;54731;42.600;23.476;2023-08-20T06:51:21;22.73;61.00
67942;SHT31;54731;42.600;23.476;2023-08-20T06:53:47;22.77;60.01
67942;SHT31;54731;42.600;23.476;2023-08-20T06:56:12;22.83;60.94
67942;SHT31;54731;42.600;23.476;2023-08-20T06:58:39;22.84;58.90
67942;SHT31;54731;42.600;23.476;2023-08-20T07:01:05;22.88;59.20
67942;SHT31;54731;42.600;23.476;2023-08-20T07:03:30;22.93;59.53
67942;SHT31;54731;42.600;23.476;2023-08-20T07:05:55;22.94;59.03
67942;SHT31;54731;42.600;23.476;2023-08-20T07:08:21;22.93;58.46
67942;SHT31;54731;42.600;23.476;2023-08-20T07:10:46;22.97;58.89
67942;SHT31;54731;42.600;23.476;2023-08-20T07:13:11;23.01;58.04
67942;SHT31;54731;42.600;23.476;2023-08-20T07:15:36;23.03;57.72
67942;SHT31;54731;42.600;23.476;2023-08-20T07:18:02;23.01;58.93
67942;SHT31;54731;42.600;23.476;2023-08-20T07:20:27;22.97;59.30
67942;SHT31;54731;42.600;23.476;2023-08-20T07:22:52;22.97;58.36
67942;SHT31;54731;42.600;23.476;2023-08-20T07:25:18;23.00;58.21
67942;SHT31;54731;42.600;23.476;2023-08-20T07:27:43;23.03;57.78
67942;SHT31;54731;42.600;23.476;2023-08-20T07:30:09;23.12;58.33
67942;SHT31;54731;42.600;23.476;2023-08-20T07:32:34;23.22;58.45
67942;SHT31;54731;42.600;23.476;2023-08-20T07:34:59;23.29;57.70
67942;SHT31;54731;42.600;23.476;2023-08-20T07:37:25;23.42;57.00
67942;SHT31;54731;42.600;23.476;2023-08-20T07:39:50;23.44;56.15
67942;SHT31;54731;42.600;23.476;2023-08-20T07:42:16;23.49;56.98
67942;SHT31;54731;42.600;23.476;2023-08-20T07:44:41;23.55;56.26
67942;SHT31;54731;42.600;23.476;2023-08-20T07:47:06;23.68;56.47
67942;SHT31;54731;42.600;23.476;2023-08-20T07:49:32;23.70;57.25
67942;SHT31;54731;42.600;23.476;2023-08-20T07:51:57;23.85;56.82
67942;SHT31;54731;42.600;23.476;2023-08-20T07:54:22;23.90;54.76
67942;SHT31;54731;42.600;23.476;2023-08-20T07:56:48;24.02;54.41
67942;SHT31;54731;42.600;23.476;2023-08-20T07:59:13;24.09;54.45
67942;SHT31;54731;42.600;23.476;2023-08-20T08:01:38;24.12;54.41
67942;SHT31;54731;42.600;23.476;2023-08-20T08:04:04;24.29;53.74
67942;SHT31;54731;42.600;23.476;2023-08-20T08:06:29;24.31;52.83
67942;SHT31;54731;42.600;23.476;2023-08-20T08:08:54;24.36;51.98
67942;SHT31;54731;42.600;23.476;2023-08-20T08:11:19;24.41;53.63
67942;SHT31;54731;42.600;23.476;2023-08-20T08:13:45;24.50;53.22
67942;SHT31;54731;42.600;23.476;2023-08-20T08:16:10;24.60;52.93
67942;SHT31;54731;42.600;23.476;2023-08-20T08:18:35;24.61;52.43
67942;SHT31;54731;42.600;23.476;2023-08-20T08:21:01;24.68;49.87
67942;SHT31;54731;42.600;23.476;2023-08-20T08:23:26;24.67;50.06
67942;SHT31;54731;42.600;23.476;2023-08-20T08:25:51;24.74;50.73
67942;SHT31;54731;42.600;23.476;2023-08-20T08:28:16;24.78;49.19
67942;SHT31;54731;42.600;23.476;2023-08-20T08:30:42;24.85;51.06
67942;SHT31;54731;42.600;23.476;2023-08-20T08:33:07;24.98;51.59
67942;SHT31;54731;42.600;23.476;2023-08-20T08:35:32;25.10;49.29
67942;SHT31;54731;42.600;23.476;2023-08-20T08:37:58;25.10;48.19
67942;SHT31;54731;42.600;23.476;2023-08-20T08:40:28;25.12;47.57
67942;SHT31;54731;42.600;23.476;2023-08-20T08:42:54;25.11;48.21
67942;SHT31;54731;42.600;23.476;2023-08-20T08:45:19;25.21;48.99
67942;SHT31;54731;42.600;23.476;2023-08-20T08:47:45;25.26;48.84
67942;SHT31;54731;42.600;23.476;2023-08-20T08:50:12;25.39;47.95
67942;SHT31;54731;42.600;23.476;2023-08-20T08:52:39;25.45;46.33
67942;SHT31;54731;42.600;23.476;2023-08-20T08:55:05;25.47;46.99
67942;SHT31;54731;42.600;23.476;2023-08-20T08:57:31;25.59;45.34
67942;SHT31;54731;42.600;23.476;2023-08-20T08:59:56;25.67;44.29
67942;SHT31;54731;42.600;23.476;2023-08-20T09:02:21;25.75;44.75
67942;SHT31;54731;42.600;23.476;2023-08-20T09:04:47;25.83;44.57
67942;SHT31;54731;42.600;23.476;2023-08-20T09:07:13;25.93;43.68
67942;SHT31;54731;42.600;23.476;2023-08-20T09:09:43;26.01;44.18
67942;SHT31;54731;42.600;23.476;2023-08-20T09:12:13;26.06;44.33
67942;SHT31;54731;42.600;23.476;2023-08-20T09:14:38;26.01;41.97
67942;SHT31;54731;42.600;23.476;2023-08-20T09:17:04;26.01;43.69
67942;SHT31;54731;42.600;23.476;2023-08-20T09:19:36;26.08;44.69
67942;SHT31;54731;42.600;23.476;2023-08-20T09:22:02;26.20;44.79
67942;SHT31;54731;42.600;23.476;2023-08-20T09:24:38;26.31;45.46
67942;SHT31;54731;42.600;23.476;2023-08-20T09:27:04;26.38;44.98
67942;SHT31;54731;42.600;23.476;2023-08-20T09:29:32;26.48;45.57
67942;SHT31;54731;42.600;23.476;2023-08-20T09:32:01;26.57;43.11
67942;SHT31;54731;42.600;23.476;2023-08-20T09:34:36;26.61;42.96
67942;SHT31;54731;42.600;23.476;2023-08-20T09:37:01;26.58;43.17
67942;SHT31;54731;42.600;23.476;2023-08-20T09:39:27;26.71;43.50
67942;SHT31;54731;42.600;23.476;2023-08-20T09:41:52;26.84;43.58
67942;SHT31;54731;42.600;23.476;2023-08-20T09:44:19;26.84;43.47
67942;SHT31;54731;42.600;23.476;2023-08-20T09:46:45;26.84;42.84
67942;SHT31;54731;42.600;23.476;2023-08-20T09:49:12;26.88;44.69
67942;SHT31;54731;42.600;23.476;2023-08-20T09:51:43;27.02;43.23
67942;SHT31;54731;42.600;23.476;2023-08-20T09:54:30;27.19;43.33
67942;SHT31;54731;42.600;23.476;2023-08-20T09:57:01;27.25;42.85
67942;SHT31;54731;42.600;23.476;2023-08-20T09:59:27;27.35;43.39
67942;SHT31;54731;42.600;23.476;2023-08-20T10:01:53;27.41;42.76
67942;SHT31;54731;42.600;23.476;2023-08-20T10:04:20;27.50;43.20
67942;SHT31;54731;42.600;23.476;2023-08-20T10:06:46;27.59;42.12
67942;SHT31;54731;42.600;23.476;2023-08-20T10:09:12;27.66;42.75
67942;SHT31;54731;42.600;23.476;2023-08-20T10:11:37;27.73;42.55
67942;SHT31;54731;42.600;23.476;2023-08-20T10:14:02;27.80;42.10
67942;SHT31;54731;42.600;23.476;2023-08-20T10:16:28;27.90;40.58
67942;SHT31;54731;42.600;23.476;2023-08-20T10:18:54;28.06;41.81
67942;SHT31;54731;42.600;23.476;2023-08-20T10:21:23;28.14;40.49
67942;SHT31;54731;42.600;23.476;2023-08-20T10:23:49;28.13;41.70
67942;SHT31;54731;42.600;23.476;2023-08-20T10:26:14;28.22;42.21
67942;SHT31;54731;42.600;23.476;2023-08-20T10:28:40;28.24;40.94
67942;SHT31;54731;42.600;23.476;2023-08-20T10:31:06;28.41;41.87
67942;SHT31;54731;42.600;23.476;2023-08-20T10:33:36;28.57;40.66
67942;SHT31;54731;42.600;23.476;2023-08-20T10:36:12;28.59;40.54
67942;SHT31;54731;42.600;23.476;2023-08-20T10:38:38;28.69;39.68
67942;SHT31;54731;42.600;23.476;2023-08-20T10:41:06;28.82;40.47
67942;SHT31;54731;42.600;23.476;2023-08-20T10:48:35;28.99;40.96
67942;SHT31;54731;42.600;23.476;2023-08-20T10:51:15;29.12;40.34
67942;SHT31;54731;42.600;23.476;2023-08-20T10:53:42;29.20;39.74
67942;SHT31;54731;42.600;23.476;2023-08-20T10:56:08;29.30;39.96
67942;SHT31;54731;42.600;23.476;2023-08-20T10:58:34;29.42;39.62
67942;SHT31;54731;42.600;23.476;2023-08-20T11:01:20;29.56;38.83
67942;SHT31;54731;42.600;23.476;2023-08-20T11:03:47;29.69;38.33
67942;SHT31;54731;42.600;23.476;2023-08-20T11:06:13;29.78;37.87
67942;SHT31;54731;42.600;23.476;2023-08-20T11:08:39;29.90;37.82
67942;SHT31;54731;42.600;23.476;2023-08-20T11:11:05;29.97;36.71
67942;SHT31;54731;42.600;23.476;2023-08-20T11:13:32;30.08;37.39
67942;SHT31;54731;42.600;23.476;2023-08-20T11:15:58;30.23;37.81
67942;SHT31;54731;42.600;23.476;2023-08-20T11:18:24;30.37;38.05
67942;SHT31;54731;42.600;23.476;2023-08-20T11:20:49;30.54;38.00
67942;SHT31;54731;42.600;23.476;2023-08-20T11:23:15;30.69;36.42
67942;SHT31;54731;42.600;23.476;2023-08-20T11:25:41;30.79;36.95
67942;SHT31;54731;42.600;23.476;2023-08-20T11:28:07;30.96;36.14
67942;SHT31;54731;42.600;23.476;2023-08-20T11:30:32;31.22;35.91
67942;SHT31;54731;42.600;23.476;2023-08-20T11:32:57;31.47;35.37
67942;SHT31;54731;42.600;23.476;2023-08-20T11:35:23;31.76;34.97
67942;SHT31;54731;42.600;23.476;2023-08-20T11:37:49;32.10;35.30
67942;SHT31;54731;42.600;23.476;2023-08-20T11:40:14;32.48;34.25
67942;SHT31;54731;42.600;23.476;2023-08-20T11:42:39;32.79;32.74
67942;SHT31;54731;42.600;23.476;2023-08-20T11:45:05;32.99;32.33
67942;SHT31;54731;42.600;23.476;2023-08-20T11:47:38;33.33;32.68
67942;SHT31;54731;42.600;23.476;2023-08-20T11:50:04;33.77;31.51
67942;SHT31;54731;42.600;23.476;2023-08-20T11:52:34;34.00;32.37
67942;SHT31;54731;42.600;23.476;2023-08-20T11:55:00;34.55;31.21
67942;SHT31;54731;42.600;23.476;2023-08-20T11:57:26;34.89;30.99
67942;SHT31;54731;42.600;23.476;2023-08-20T11:59:51;35.40;30.44
67942;SHT31;54731;42.600;23.476;2023-08-20T12:02:25;35.40;29.18
67942;SHT31;54731;42.600;23.476;2023-08-20T12:04:50;35.51;29.93
67942;SHT31;54731;42.600;23.476;2023-08-20T12:07:16;35.57;29.32
67942;SHT31;54731;42.600;23.476;2023-08-20T12:09:41;35.74;28.82
67942;SHT31;54731;42.600;23.476;2023-08-20T12:12:07;35.87;29.08
67942;SHT31;54731;42.600;23.476;2023-08-20T12:14:34;35.93;30.03
67942;SHT31;54731;42.600;23.476;2023-08-20T12:16:59;36.07;29.52
67942;SHT31;54731;42.600;23.476;2023-08-20T12:19:24;36.31;28.93
67942;SHT31;54731;42.600;23.476;2023-08-20T12:21:50;36.62;27.97
67942;SHT31;54731;42.600;23.476;2023-08-20T12:24:15;36.74;28.26
67942;SHT31;54731;42.600;23.476;2023-08-20T12:26:41;36.85;28.41
67942;SHT31;54731;42.600;23.476;2023-08-20T12:29:07;37.30;27.40
67942;SHT31;54731;42.600;23.476;2023-08-20T12:31:33;37.18;27.73
67942;SHT31;54731;42.600;23.476;2023-08-20T12:33:59;37.10;27.70
67942;SHT31;54731;42.600;23.476;2023-08-20T12:36:25;37.32;27.57
67942;SHT31;54731;42.600;23.476;2023-08-20T12:38:50;37.56;27.22
67942;SHT31;54731;42.600;23.476;2023-08-20T12:41:15;38.05;27.27
67942;SHT31;54731;42.600;23.476;2023-08-20T12:43:41;38.23;26.85
67942;SHT31;54731;42.600;23.476;2023-08-20T12:46:06;38.28;26.59
67942;SHT31;54731;42.600;23.476;2023-08-20T12:48:32;38.05;26.54
67942;SHT31;54731;42.600;23.476;2023-08-20T12:50:57;38.21;26.29
67942;SHT31;54731;42.600;23.476;2023-08-20T12:53:22;38.56;26.86
67942;SHT31;54731;42.600;23.476;2023-08-20T12:55:48;38.29;25.21
67942;SHT31;54731;42.600;23.476;2023-08-20T12:58:13;37.91;26.75
67942;SHT31;54731;42.600;23.476;2023-08-20T13:00:38;37.57;27.17
67942;SHT31;54731;42.600;23.476;2023-08-20T13:03:04;37.93;26.10
67942;SHT31;54731;42.600;23.476;2023-08-20T13:05:30;37.37;26.40
67942;SHT31;54731;42.600;23.476;2023-08-20T13:07:55;37.64;27.58
67942;SHT31;54731;42.600;23.476;2023-08-20T13:10:21;37.95;26.04
67942;SHT31;54731;42.600;23.476;2023-08-20T13:13:00;38.10;26.18
67942;SHT31;54731;42.600;23.476;2023-08-20T13:15:26;38.47;26.65
67942;SHT31;54731;42.600;23.476;2023-08-20T13:17:52;37.98;25.98
67942;SHT31;54731;42.600;23.476;2023-08-20T13:20:18;38.13;25.61
67942;SHT31;54731;42.600;23.476;2023-08-20T13:22:44;38.52;27.07
67942;SHT31;54731;42.600;23.476;2023-08-20T13:25:09;38.75;25.99
67942;SHT31;54731;42.600;23.476;2023-08-20T13:27:34;38.28;25.97
67942;SHT31;54731;42.600;23.476;2023-08-20T13:29:59;38.42;25.97
67942;SHT31;54731;42.600;23.476;2023-08-20T13:32:25;38.74;26.34
67942;SHT31;54731;42.600;23.476;2023-08-20T13:34:50;38.98;25.57
67942;SHT31;54731;42.600;23.476;2023-08-20T13:37:16;39.05;25.52
67942;SHT31;54731;42.600;23.476;2023-08-20T13:39:41;39.00;25.07
67942;SHT31;54731;42.600;23.476;2023-08-20T13:42:06;38.58;25.04
67942;SHT31;54731;42.600;23.476;2023-08-20T13:44:32;37.42;26.21
67942;SHT31;54731;42.600;23.476;2023-08-20T13:46:57;37.60;26.05
67942;SHT31;54731;42.600;23.476;2023-08-20T13:49:22;37.62;26.25
67942;SHT31;54731;42.600;23.476;2023-08-20T13:51:47;37.81;25.93
67942;SHT31;54731;42.600;23.476;2023-08-20T13:54:13;37.42;25.86
67942;SHT31;54731;42.600;23.476;2023-08-20T13:56:38;37.93;26.60
67942;SHT31;54731;42.600;23.476;2023-08-20T13:59:03;38.05;25.37
67942;SHT31;54731;42.600;23.476;2023-08-20T14:01:29;37.83;25.56
67942;SHT31;54731;42.600;23.476;2023-08-20T14:03:54;37.44;26.12
67942;SHT31;54731;42.600;23.476;2023-08-20T14:06:19;37.69;27.32
67942;SHT31;54731;42.600;23.476;2023-08-20T14:08:45;38.05;27.14
67942;SHT31;54731;42.600;23.476;2023-08-20T14:11:10;38.04;26.16
67942;SHT31;54731;42.600;23.476;2023-08-20T14:13:36;38.07;25.24
67942;SHT31;54731;42.600;23.476;2023-08-20T14:16:01;38.15;25.05
67942;SHT31;54731;42.600;23.476;2023-08-20T14:18:27;38.37;25.99
67942;SHT31;54731;42.600;23.476;2023-08-20T14:20:52;38.08;25.48
67942;SHT31;54731;42.600;23.476;2023-08-20T14:23:17;38.28;25.14
67942;SHT31;54731;42.600;23.476;2023-08-20T14:25:43;38.25;25.39
67942;SHT31;54731;42.600;23.476;2023-08-20T14:28:08;38.38;25.29
67942;SHT31;54731;42.600;23.476;2023-08-20T14:30:37;38.38;25.15
67942;SHT31;54731;42.600;23.476;2023-08-20T14:33:03;38.39;24.93
67942;SHT31;54731;42.600;23.476;2023-08-20T14:35:29;38.31;24.96
67942;SHT31;54731;42.600;23.476;2023-08-20T14:37:54;38.23;25.14
67942;SHT31;54731;42.600;23.476;2023-08-20T14:40:19;38.23;24.86
67942;SHT31;54731;42.600;23.476;2023-08-20T14:42:45;38.13;25.02
67942;SHT31;54731;42.600;23.476;2023-08-20T14:45:10;38.13;25.28
67942;SHT31;54731;42.600;23.476;2023-08-20T14:47:35;38.18;25.55
67942;SHT31;54731;42.600;23.476;2023-08-20T14:50:00;38.23;24.86
67942;SHT31;54731;42.600;23.476;2023-08-20T14:52:26;37.95;24.98
67942;SHT31;54731;42.600;23.476;2023-08-20T14:54:51;37.84;24.79
67942;SHT31;54731;42.600;23.476;2023-08-20T14:57:16;37.81;24.91
67942;SHT31;54731;42.600;23.476;2023-08-20T14:59:42;37.64;25.95
67942;SHT31;54731;42.600;23.476;2023-08-20T15:02:07;37.30;24.89
67942;SHT31;54731;42.600;23.476;2023-08-20T15:04:32;37.18;25.88
67942;SHT31;54731;42.600;23.476;2023-08-20T15:06:58;37.36;25.93
67942;SHT31;54731;42.600;23.476;2023-08-20T15:09:23;37.46;25.70
67942;SHT31;54731;42.600;23.476;2023-08-20T15:11:48;37.42;25.63
67942;SHT31;54731;42.600;23.476;2023-08-20T15:14:14;37.37;25.42
67942;SHT31;54731;42.600;23.476;2023-08-20T15:16:39;37.36;25.05
67942;SHT31;54731;42.600;23.476;2023-08-20T15:19:04;37.34;25.79